Lexington — WDD4356 — position and weather

sailwx.info

Track history (hours):
 
Tides and Currents Weather Stations Pressure Air Temp Water Temp Dewpoint Dewpoint Depression Visibility Wind Speed Wind Dir Waves Ship Positions

Lexington

Owner: American Commercial Lines LLC, Jeffersonville, IN. More information available from US FCC via Universal Licensing System and Coast Guard Vessel Documentation Center.

Last reported at 2014-Apr-15 10:34 UTC. Time now 2014-Oct-21 10:36 UTC.
Position N 30°01' W 090°44'.
Warning: this ship's position is months out of date.

MMSI: 367143680.

Date/timePositionNaut miles runAvg speedWind from/ knotsBaromVisibWave heightAir tempDewpointWater temp
2014-Apr-15 10:34N 30°01' W 090°44'4 4.1
2014-Apr-15 09:34N 30°03' W 090°40'3 3.3
2014-Apr-15 08:34N 30°02' W 090°36'3 2.6
2014-Apr-15 07:34N 30°03' W 090°33'2 2.4
2014-Apr-15 06:33N 30°03' W 090°31'0 0.0
2014-Apr-15 05:33N 30°03' W 090°31'0 0.0
2014-Apr-15 03:34N 30°03' W 090°31'0 0.0
2014-Apr-15 02:34N 30°03' W 090°31'0 0.0
2014-Apr-15 01:33N 30°03' W 090°31'0 0.0
2014-Apr-15 00:33N 30°03' W 090°31'0 0.0
2014-Apr-14 23:34N 30°03' W 090°31'0 0.0
2014-Apr-14 22:33N 30°03' W 090°31'0 0.0
2014-Apr-14 21:34N 30°03' W 090°31'0 0.0
2014-Apr-14 20:33N 30°03' W 090°31'0 0.0
2014-Apr-14 19:34N 30°03' W 090°31'0 0.0
2014-Apr-14 18:34N 30°03' W 090°31'0 0.0
2014-Apr-14 17:33N 30°03' W 090°31'0 0.0
2014-Apr-14 16:33N 30°03' W 090°31'0 0.0
2014-Apr-14 15:33N 30°03' W 090°31'8 1.4
2014-Apr-14 09:33N 29°57' W 090°24'6 6.3
2014-Apr-14 08:34N 30°02' W 090°28'0 0.1
2014-Apr-14 07:33N 30°02' W 090°28'0 0.0
2014-Apr-14 06:33N 30°02' W 090°28'0 0.0
2014-Apr-14 05:33N 30°02' W 090°28'  
Track history (hours):
 
Tides and Currents Weather Stations Pressure Air Temp Water Temp Dewpoint Dewpoint Depression Visibility Wind Speed Wind Dir Waves Ship Positions

Lexington

Owner: American Commercial Lines LLC, Jeffersonville, IN. More information available from US FCC via Universal Licensing System and Coast Guard Vessel Documentation Center.

Last reported at 2014-Apr-15 10:34 UTC. Time now 2014-Oct-21 10:36 UTC.
Position N 30°01' W 090°44'.
Warning: this ship's position is months out of date.

MMSI: 367143680.

Date/timePositionNaut miles runAvg speedWind from/ knotsBaromVisibWave heightAir tempDewpointWater temp
2014-Apr-15 10:34N 30°01' W 090°44'4 4.1
2014-Apr-15 09:34N 30°03' W 090°40'3 3.3
2014-Apr-15 08:34N 30°02' W 090°36'3 2.6
2014-Apr-15 07:34N 30°03' W 090°33'2 2.4
2014-Apr-15 06:33N 30°03' W 090°31'0 0.0
2014-Apr-15 05:33N 30°03' W 090°31'0 0.0
2014-Apr-15 03:34N 30°03' W 090°31'0 0.0
2014-Apr-15 02:34N 30°03' W 090°31'0 0.0
2014-Apr-15 01:33N 30°03' W 090°31'0 0.0
2014-Apr-15 00:33N 30°03' W 090°31'0 0.0
2014-Apr-14 23:34N 30°03' W 090°31'0 0.0
2014-Apr-14 22:33N 30°03' W 090°31'0 0.0
2014-Apr-14 21:34N 30°03' W 090°31'0 0.0
2014-Apr-14 20:33N 30°03' W 090°31'0 0.0
2014-Apr-14 19:34N 30°03' W 090°31'0 0.0
2014-Apr-14 18:34N 30°03' W 090°31'0 0.0
2014-Apr-14 17:33N 30°03' W 090°31'0 0.0
2014-Apr-14 16:33N 30°03' W 090°31'0 0.0
2014-Apr-14 15:33N 30°03' W 090°31'8 1.4
2014-Apr-14 09:33N 29°57' W 090°24'6 6.3
2014-Apr-14 08:34N 30°02' W 090°28'0 0.1
2014-Apr-14 07:33N 30°02' W 090°28'0 0.0
2014-Apr-14 06:33N 30°02' W 090°28'0 0.0
2014-Apr-14 05:33N 30°02' W 090°28'  

Dump ship's entire track history